Weather at Toronto (Sunnybrook Medical Centre) Heliport

Public forecast

Using degrees Celsius for public forecast. Weather courtesy of forecast.io.

Closest aviation weather report (METAR) to Toronto (Sunnybrook Medical Centre) Heliport

Closest report is Billy Bishop Toronto City Centre Airport, 5.7 nm (10.6 km) S. Retrieved 2020/11/27 16:00 UTC (45 minutes ago):

CYTZ 271600Z AUTO 22008KT 9SM OVC034 07/04 A3006 RMK SLP181

Closest aviation forecast (TAF) to Toronto (Sunnybrook Medical Centre) Heliport

Closest forecast is Billy Bishop Toronto City Centre Airport, 5.7 nm (10.6 km) S. Retrieved 2020/11/27 14:40 UTC (2 hours ago):

TAF CYTZ 271338Z 2714/2814 27008KT P6SM OVC020 TEMPO 2714/2717 OVC025 FM271700 24010KT P6SM OVC030 TEMPO 2717/2724 OVC020 FM280200 25008KT P6SM SCT008 OVC020 PROB40 2802/2810 5SM -DZ BR BKN008 OVC020 FM281000 27012KT P6SM SCT020 BKN030 RMK FCST BASED ON AUTO OBS NXT FCST BY 272000Z